createdAt,value
2019-01-25T00:03:18.904Z,69.20
2019-01-25T00:08:24.279Z,69.10
2019-01-25T00:13:29.619Z,69.20
2019-01-25T00:18:34.943Z,69.00
2019-01-25T00:23:40.270Z,69.30
2019-01-25T00:28:45.662Z,69.40
2019-01-25T00:33:51.025Z,69.60
2019-01-25T00:38:56.392Z,69.70
2019-01-25T00:44:01.731Z,69.70
2019-01-25T00:49:07.079Z,69.70
2019-01-25T00:54:12.398Z,69.70
2019-01-25T00:59:17.712Z,69.70
2019-01-25T01:04:23.080Z,69.80
2019-01-25T01:09:28.434Z,69.70
2019-01-25T01:14:33.819Z,69.70
2019-01-25T01:19:39.183Z,69.90
2019-01-25T01:24:44.569Z,69.50
2019-01-25T01:29:49.920Z,69.40
2019-01-25T01:34:55.345Z,69.40
2019-01-25T01:40:00.654Z,69.30
2019-01-25T01:45:06.343Z,69.10
2019-01-25T01:50:13.992Z,69.00
2019-01-25T01:55:19.321Z,68.90
2019-01-25T02:00:28.219Z,68.80
2019-01-25T02:05:33.575Z,68.80
2019-01-25T02:10:38.915Z,69.10
2019-01-25T02:15:44.242Z,68.90
2019-01-25T02:20:49.647Z,68.80
2019-01-25T02:25:55.504Z,68.70
2019-01-25T02:31:01.131Z,68.80
2019-01-25T02:36:06.736Z,69.00
2019-01-25T02:41:12.288Z,69.00
2019-01-25T02:46:17.822Z,69.00
2019-01-25T02:51:23.399Z,69.00
2019-01-25T02:56:28.934Z,69.10
2019-01-25T03:01:34.321Z,69.20
2019-01-25T03:06:39.733Z,69.20
2019-01-25T03:11:45.086Z,69.30
2019-01-25T03:16:50.393Z,69.30
2019-01-25T03:21:55.737Z,69.40
2019-01-25T03:27:01.061Z,69.50
2019-01-25T03:32:06.425Z,69.60
2019-01-25T03:37:11.755Z,69.70
2019-01-25T03:42:17.061Z,69.80
2019-01-25T03:47:22.374Z,70.00
2019-01-25T03:52:27.685Z,70.20
2019-01-25T03:57:33.048Z,70.10
2019-01-25T04:02:38.401Z,70.00
2019-01-25T04:07:43.753Z,70.30
2019-01-25T04:12:49.146Z,70.40
2019-01-25T04:17:54.562Z,70.50
2019-01-25T04:22:59.886Z,70.60
2019-01-25T04:28:05.270Z,70.70
2019-01-25T04:33:10.612Z,70.80
2019-01-25T04:38:15.941Z,71.00
2019-01-25T04:43:21.296Z,71.10
2019-01-25T04:48:26.709Z,71.20
2019-01-25T04:53:33.414Z,71.40
2019-01-25T04:58:38.743Z,71.60
2019-01-25T05:03:44.791Z,71.50
2019-01-25T05:08:50.135Z,71.70
2019-01-25T05:13:55.454Z,71.70
2019-01-25T05:19:00.751Z,72.00
2019-01-25T05:24:12.448Z,72.20
2019-01-25T05:29:19.429Z,72.40
2019-01-25T05:34:24.821Z,72.40
2019-01-25T05:39:30.120Z,72.60
2019-01-25T05:44:35.472Z,72.70
2019-01-25T05:49:40.797Z,72.60
2019-01-25T05:54:46.112Z,72.80
2019-01-25T05:59:51.483Z,72.90
2019-01-25T06:04:57.145Z,72.70
2019-01-25T06:10:02.540Z,72.90
2019-01-25T06:15:08.350Z,72.70
2019-01-25T06:20:13.809Z,72.90
2019-01-25T06:25:19.140Z,72.70
2019-01-25T06:30:24.467Z,72.80
2019-01-25T06:35:29.817Z,72.80
2019-01-25T06:40:35.293Z,72.80
2019-01-25T06:45:40.724Z,72.80
2019-01-25T06:50:46.030Z,73.00
2019-01-25T06:55:51.414Z,72.70
2019-01-25T07:01:13.316Z,72.80
2019-01-25T07:06:18.885Z,72.90
2019-01-25T07:11:24.265Z,72.80
2019-01-25T07:16:29.640Z,73.00
2019-01-25T07:21:34.984Z,72.90
2019-01-25T07:26:40.325Z,73.10
2019-01-25T07:31:46.393Z,73.00
2019-01-25T07:36:52.116Z,73.10
2019-01-25T07:41:59.613Z,73.30
2019-01-25T07:47:04.756Z,73.40
2019-01-25T07:52:10.165Z,73.40
2019-01-25T07:57:15.593Z,73.70
2019-01-25T08:02:20.946Z,73.60
2019-01-25T08:07:26.387Z,73.70
2019-01-25T08:12:31.982Z,73.80
2019-01-25T08:17:37.333Z,73.70
2019-01-25T08:22:42.911Z,73.80
2019-01-25T08:27:48.833Z,73.80
2019-01-25T08:32:54.342Z,73.80
2019-01-25T08:37:59.721Z,73.80
2019-01-25T08:43:05.089Z,73.80
2019-01-25T08:48:10.575Z,73.60
2019-01-25T08:53:15.962Z,73.60
2019-01-25T08:58:21.317Z,73.60
2019-01-25T09:03:26.663Z,73.40
2019-01-25T09:08:32.013Z,73.30
2019-01-25T09:13:37.424Z,73.30
2019-01-25T09:18:42.740Z,73.30
2019-01-25T09:23:48.080Z,73.10
2019-01-25T09:28:53.448Z,73.00
2019-01-25T09:33:58.798Z,72.80
2019-01-25T09:39:05.764Z,72.80
2019-01-25T09:44:11.140Z,73.10
2019-01-25T09:49:16.563Z,72.80
2019-01-25T09:54:21.875Z,72.70
2019-01-25T09:59:27.312Z,72.30
2019-01-25T10:04:32.778Z,72.10
2019-01-25T10:09:38.117Z,72.00
2019-01-25T10:14:43.465Z,72.60
2019-01-25T10:19:50.585Z,72.80
2019-01-25T10:24:55.891Z,72.80
2019-01-25T10:30:01.291Z,72.00
2019-01-25T10:35:08.451Z,71.40
2019-01-25T10:40:16.674Z,70.80
2019-01-25T10:45:34.195Z,70.10
2019-01-25T10:50:39.525Z,69.60
2019-01-25T10:55:44.942Z,69.30
2019-01-25T11:00:51.339Z,69.40
2019-01-25T11:05:56.867Z,69.50
2019-01-25T11:11:02.425Z,69.40
2019-01-25T11:16:11.972Z,69.40
2019-01-25T11:21:15.126Z,69.40
2019-01-25T11:26:20.424Z,69.30
2019-01-25T11:31:25.774Z,69.30
2019-01-25T11:36:31.115Z,68.90
2019-01-25T11:41:36.465Z,67.90
2019-01-25T11:46:41.802Z,67.60
2019-01-25T11:51:47.277Z,67.10
2019-01-25T11:56:52.676Z,66.90
2019-01-25T12:01:58.048Z,66.80
2019-01-25T12:07:03.435Z,66.60
2019-01-25T12:12:08.766Z,66.00
2019-01-25T12:17:14.162Z,65.80
2019-01-25T12:22:19.800Z,65.40
2019-01-25T12:27:25.227Z,64.80
2019-01-25T12:32:30.601Z,64.80
2019-01-25T12:37:35.889Z,64.50
2019-01-25T12:42:41.189Z,63.90
2019-01-25T12:47:46.521Z,63.50
2019-01-25T12:52:51.921Z,63.20
2019-01-25T12:57:57.241Z,62.90
2019-01-25T13:03:02.600Z,62.60
2019-01-25T13:08:07.968Z,62.30
2019-01-25T13:13:13.356Z,61.90
2019-01-25T13:18:18.756Z,61.60
2019-01-25T13:23:24.433Z,61.10
2019-01-25T13:28:29.841Z,60.80
2019-01-25T13:33:35.267Z,60.40
2019-01-25T13:38:41.106Z,60.00
2019-01-25T13:43:46.445Z,59.60
2019-01-25T13:48:51.767Z,59.70
2019-01-25T13:53:57.116Z,59.60
2019-01-25T13:59:02.718Z,59.10
2019-01-25T14:04:08.060Z,59.40
2019-01-25T14:09:13.391Z,59.20
2019-01-25T14:14:18.722Z,59.00
2019-01-25T14:19:24.198Z,59.30
2019-01-25T14:24:29.624Z,59.40
2019-01-25T14:29:35.016Z,59.60
2019-01-25T14:34:40.372Z,59.60
2019-01-25T14:39:45.809Z,59.70
2019-01-25T14:44:51.213Z,60.00
2019-01-25T14:49:56.592Z,60.40
2019-01-25T14:55:01.929Z,60.70
2019-01-25T15:00:07.896Z,61.20
2019-01-25T15:05:16.123Z,61.30
2019-01-25T15:10:23.968Z,61.80
2019-01-25T15:15:29.304Z,62.20
2019-01-25T15:20:34.609Z,62.40
2019-01-25T15:25:39.941Z,62.70
2019-01-25T15:30:45.395Z,63.10
2019-01-25T15:35:50.695Z,63.20
2019-01-25T15:40:55.990Z,63.50
2019-01-25T15:46:01.299Z,63.80
2019-01-25T15:51:06.717Z,64.10
2019-01-25T15:56:12.134Z,64.30
2019-01-25T16:01:17.737Z,64.70
2019-01-25T16:06:23.072Z,64.90
2019-01-25T16:11:29.135Z,65.00
2019-01-25T16:16:34.492Z,65.20
2019-01-25T16:21:39.801Z,65.40
2019-01-25T16:26:45.738Z,65.50
2019-01-25T16:31:51.180Z,65.80
2019-01-25T16:36:57.133Z,66.80
2019-01-25T16:42:02.662Z,67.80
2019-01-25T16:47:08.118Z,69.30
2019-01-25T16:52:14.024Z,70.00
2019-01-25T16:57:19.462Z,70.70
2019-01-25T17:02:25.063Z,71.80
2019-01-25T17:07:30.415Z,72.50
2019-01-25T17:12:35.723Z,73.60
2019-01-25T17:17:41.075Z,74.00
2019-01-25T17:22:46.384Z,74.60
2019-01-25T17:27:51.717Z,75.30
2019-01-25T17:32:58.976Z,74.90
2019-01-25T17:38:05.537Z,76.20
2019-01-25T17:43:10.875Z,76.20
2019-01-25T17:48:16.166Z,75.80
2019-01-25T17:53:21.571Z,76.90
2019-01-25T17:58:26.899Z,76.70
2019-01-25T18:03:33.110Z,76.70
2019-01-25T18:08:38.608Z,76.90
2019-01-25T18:13:44.477Z,77.70
2019-01-25T18:18:49.966Z,77.90
2019-01-25T18:23:55.296Z,79.10
2019-01-25T18:29:12.298Z,78.70
2019-01-25T18:34:17.797Z,79.20
2019-01-25T18:39:23.431Z,78.80
2019-01-25T18:44:28.863Z,79.40
2019-01-25T18:49:34.221Z,79.30
2019-01-25T18:54:39.571Z,79.50
2019-01-25T18:59:44.940Z,79.70
2019-01-25T19:04:50.296Z,79.70
2019-01-25T19:09:55.611Z,79.60
2019-01-25T19:15:04.557Z,80.60
2019-01-25T19:20:10.951Z,80.10
2019-01-25T19:25:16.336Z,80.30
2019-01-25T19:30:34.553Z,80.40
2019-01-25T19:35:39.869Z,80.60
2019-01-25T19:40:45.264Z,81.10
2019-01-25T19:45:50.589Z,81.10
2019-01-25T19:50:55.947Z,81.30
2019-01-25T19:56:01.311Z,81.30
2019-01-25T20:01:06.773Z,81.40
2019-01-25T20:06:12.102Z,81.60
2019-01-25T20:11:17.454Z,81.60
2019-01-25T20:16:22.835Z,82.00
2019-01-25T20:21:28.159Z,82.10
2019-01-25T20:26:33.568Z,82.00
2019-01-25T20:31:38.870Z,82.60
2019-01-25T20:36:44.202Z,82.70
2019-01-25T20:41:49.596Z,83.10
2019-01-25T20:46:54.935Z,83.10
2019-01-25T20:52:00.453Z,83.00
2019-01-25T20:57:05.781Z,83.00
2019-01-25T21:02:11.128Z,83.30
2019-01-25T21:07:16.470Z,83.40
2019-01-25T21:12:21.913Z,83.70
2019-01-25T21:17:27.204Z,83.70
2019-01-25T21:22:32.591Z,83.90
2019-01-25T21:27:37.924Z,84.00
2019-01-25T21:32:43.222Z,84.20
2019-01-25T21:37:48.505Z,84.20
2019-01-25T21:42:53.849Z,84.40
2019-01-25T21:47:59.224Z,85.30
2019-01-25T21:53:04.564Z,84.80
2019-01-25T21:58:09.940Z,84.70
2019-01-25T22:03:15.269Z,84.90
2019-01-25T22:08:20.666Z,85.00
2019-01-25T22:13:26.104Z,85.00
2019-01-25T22:18:31.501Z,84.90
2019-01-25T22:23:36.850Z,85.00
2019-01-25T22:28:42.141Z,85.00
2019-01-25T22:33:47.495Z,84.90
2019-01-25T22:38:52.810Z,85.00
2019-01-25T22:43:58.186Z,84.90
2019-01-25T22:49:03.561Z,85.10
2019-01-25T22:54:08.901Z,85.40
2019-01-25T22:59:14.429Z,85.50
2019-01-25T23:05:07.675Z,85.40
2019-01-25T23:10:21.371Z,85.50
2019-01-25T23:15:26.775Z,85.40
2019-01-25T23:20:32.126Z,85.60
2019-01-25T23:25:37.504Z,85.30
2019-01-25T23:30:42.802Z,85.40
2019-01-25T23:35:48.140Z,85.50
2019-01-25T23:40:53.543Z,85.50
2019-01-25T23:45:58.829Z,85.80
2019-01-25T23:51:04.161Z,86.00
2019-01-25T23:56:09.468Z,86.10
